Surface observations / UK / EGMC

Quebec | Canada | USA | France | UK | Europe | Elsewhere

Display: Info & Location for EGMC | Help decoding METAR

EGMC SOUTHEND-ON-SEA -- UK
Raw surface observations for station EGMC
EGMC 271620Z 25010KT 9999 FEW023 BKN027 08/03 Q1025=
EGMC 271550Z 27006KT 9999 FEW023 BKN025 08/04 Q1025=
EGMC 271520Z 29005KT 9999 FEW023 BKN027 08/03 Q1025=
EGMC 271450Z 30006KT 9999 FEW023 BKN026 08/03 Q1025=
EGMC 271420Z 30007KT 9999 BKN023 08/03 Q1025=
EGMC 271350Z 29009KT 9999 SCT023 09/03 Q1025=
EGMC 271320Z 29008KT 9999 FEW023 09/03 Q1025=
EGMC 271250Z 29008KT 9999 FEW026 08/03 Q1026=
EGMC 271220Z 30008KT 270V330 9999 FEW026 09/04 Q1026=
EGMC 271150Z 30010KT 9999 FEW024 08/03 Q1026=
EGMC 271120Z 30009KT CAVOK 07/03 Q1026=
EGMC 271050Z 30009KT CAVOK 07/03 Q1027=
EGMC 271020Z 30009KT CAVOK 07/03 Q1027=
EGMC 270950Z 29007KT CAVOK 05/01 Q1027=
EGMC 270920Z 28008KT CAVOK 04/01 Q1027=
EGMC 270850Z 28007KT CAVOK 04/01 Q1027=
EGMC 270820Z 28008KT CAVOK 05/02 Q1027=
EGMC 270750Z 28007KT CAVOK 05/02 Q1026=
EGMC 270720Z 28007KT CAVOK 04/01 Q1026=
EGMC 270650Z 28007KT CAVOK 04/01 Q1027=
EGMC 270620Z 29006KT CAVOK 04/01 Q1027=
EGMC 270550Z 28006KT CAVOK 04/01 Q1027=
EGMC 270450Z 28006KT CAVOK 04/01 Q1027=
EGMC 270350Z 28006KT CAVOK 03/00 Q1027=
EGMC 270250Z 29007KT CAVOK 04/01 Q1027=
EGMC 270150Z 29007KT CAVOK 03/01 Q1027=
EGMC 262350Z 30007KT CAVOK 04/01 Q1027=
EGMC 262250Z 30008KT CAVOK 04/01 Q1026=
EGMC 262220Z 30008KT CAVOK 05/01 Q1026=
EGMC 262150Z 30010KT CAVOK 04/01 Q1026=
EGMC 262050Z 29010KT CAVOK 05/01 Q1025=
EGMC 262020Z 30009KT CAVOK 05/01 Q1026=
EGMC 261950Z 32008KT CAVOK 05/01 Q1026=
EGMC 261850Z 30008KT CAVOK 06/00 Q1025=
EGMC 261820Z 30009KT CAVOK 06/01 Q1025=
EGMC 261750Z 30011KT CAVOK 07/01 Q1024=
EGMC 261720Z 30010KT 270V330 CAVOK 07/01 Q1024=
EGMC 261650Z 31011KT 270V330 CAVOK 07/01 Q1023=
EGMC 261620Z 31011KT 270V330 9999 FEW024 07/01 Q1023=